createdAt,value
2023-05-12T00:00:53.686Z,94.29
2023-05-12T00:01:53.752Z,94.26
2023-05-12T00:02:53.936Z,94.43
2023-05-12T00:03:54.309Z,94.49
2023-05-12T00:04:54.171Z,94.42
2023-05-12T00:05:54.312Z,94.45
2023-05-12T00:06:54.730Z,94.41
2023-05-12T00:07:54.516Z,94.32
2023-05-12T00:08:54.670Z,94.34
2023-05-12T00:09:54.792Z,94.45
2023-05-12T00:10:54.937Z,94.57
2023-05-12T00:11:55.147Z,94.47
2023-05-12T00:12:55.327Z,94.48
2023-05-12T00:13:55.444Z,94.43
2023-05-12T00:14:55.446Z,94.39
2023-05-12T00:15:55.593Z,94.53
2023-05-12T00:16:55.766Z,94.45
2023-05-12T00:17:55.883Z,94.48
2023-05-12T00:18:55.979Z,94.56
2023-05-12T00:19:56.108Z,94.65
2023-05-12T00:20:56.178Z,94.74
2023-05-12T00:21:56.278Z,94.78
2023-05-12T00:22:56.450Z,94.85
2023-05-12T00:23:56.617Z,94.92
2023-05-12T00:24:56.685Z,94.94
2023-05-12T00:25:56.916Z,94.95
2023-05-12T00:26:56.973Z,94.96
2023-05-12T00:27:57.109Z,95.02
2023-05-12T00:28:57.220Z,95.06
2023-05-12T00:29:57.362Z,95.08
2023-05-12T00:30:57.510Z,95.00
2023-05-12T00:31:57.676Z,94.98
2023-05-12T00:32:57.802Z,95.09
2023-05-12T00:33:57.911Z,94.89
2023-05-12T00:34:58.596Z,94.93
2023-05-12T00:35:58.122Z,95.07
2023-05-12T00:36:58.316Z,95.11
2023-05-12T00:37:58.524Z,95.07
2023-05-12T00:38:58.571Z,95.17
2023-05-12T00:39:58.761Z,95.25
2023-05-12T00:40:58.820Z,95.25
2023-05-12T00:41:58.949Z,95.23
2023-05-12T00:42:59.124Z,95.18
2023-05-12T00:43:59.209Z,95.24
2023-05-12T00:44:59.351Z,95.31
2023-05-12T00:45:59.550Z,95.41
2023-05-12T00:46:59.571Z,95.39
2023-05-12T00:47:59.803Z,95.35
2023-05-12T00:48:59.859Z,95.30
2023-05-12T00:49:59.951Z,95.29
2023-05-12T00:51:00.027Z,95.35
2023-05-12T00:52:00.178Z,95.35
2023-05-12T00:53:00.442Z,95.35
2023-05-12T00:54:00.451Z,95.44
2023-05-12T00:55:00.604Z,95.44
2023-05-12T00:56:00.852Z,95.43
2023-05-12T00:57:00.891Z,95.49
2023-05-12T00:58:01.073Z,95.55
2023-05-12T00:59:01.248Z,95.65
2023-05-12T01:00:01.328Z,95.72
2023-05-12T01:01:01.411Z,95.78
2023-05-12T01:02:01.544Z,95.84
2023-05-12T01:03:01.830Z,95.83
2023-05-12T01:04:01.784Z,95.84
2023-05-12T01:05:01.913Z,95.89
2023-05-12T01:06:02.100Z,95.89
2023-05-12T01:07:02.233Z,95.88
2023-05-12T01:08:02.344Z,95.89
2023-05-12T01:09:02.449Z,95.85
2023-05-12T01:10:02.567Z,95.77
2023-05-12T01:11:02.708Z,95.76
2023-05-12T01:12:02.789Z,95.74
2023-05-12T01:13:02.916Z,95.82
2023-05-12T01:14:03.188Z,95.85
2023-05-12T01:15:03.211Z,95.89
2023-05-12T01:16:03.381Z,95.93
2023-05-12T01:17:03.476Z,95.94
2023-05-12T01:18:03.598Z,95.98
2023-05-12T01:19:03.825Z,96.03
2023-05-12T01:20:03.883Z,96.05
2023-05-12T01:21:04.004Z,96.00
2023-05-12T01:22:04.115Z,95.98
2023-05-12T01:23:04.198Z,95.99
2023-05-12T01:24:04.364Z,96.03
2023-05-12T01:25:04.622Z,96.06
2023-05-12T01:26:05.298Z,96.07
2023-05-12T01:27:04.758Z,96.14
2023-05-12T01:28:04.962Z,96.18
2023-05-12T01:29:05.024Z,96.20
2023-05-12T01:30:05.237Z,96.13
2023-05-12T01:31:05.319Z,96.13
2023-05-12T01:32:05.426Z,96.12
2023-05-12T01:33:05.594Z,96.16
2023-05-12T01:34:05.675Z,96.19
2023-05-12T01:35:05.838Z,96.20
2023-05-12T01:36:05.944Z,96.21
2023-05-12T01:37:06.076Z,96.21
2023-05-12T01:38:06.191Z,96.21
2023-05-12T01:39:06.354Z,96.21
2023-05-12T01:40:06.501Z,96.27
2023-05-12T01:41:06.589Z,96.31
2023-05-12T01:42:06.811Z,96.25
2023-05-12T01:43:06.898Z,96.27
2023-05-12T01:44:07.002Z,96.29
2023-05-12T01:45:07.112Z,96.32
2023-05-12T01:46:07.358Z,96.35
2023-05-12T01:47:07.329Z,96.29
2023-05-12T01:48:07.488Z,96.31
2023-05-12T01:49:07.601Z,96.35
2023-05-12T01:50:07.785Z,96.33
2023-05-12T01:51:07.932Z,96.33
2023-05-12T01:52:08.000Z,96.37
2023-05-12T01:53:08.090Z,96.37
2023-05-12T01:54:08.218Z,96.33
2023-05-12T01:55:08.338Z,96.36
2023-05-12T01:56:08.554Z,96.35
2023-05-12T01:57:08.646Z,96.30
2023-05-12T01:58:08.735Z,96.29
2023-05-12T01:59:08.952Z,96.26
2023-05-12T02:00:09.025Z,96.26
2023-05-12T02:01:09.193Z,96.30
2023-05-12T02:02:09.376Z,96.36
2023-05-12T02:03:09.541Z,96.40
2023-05-12T02:04:09.669Z,96.35
2023-05-12T02:05:09.674Z,96.37
2023-05-12T02:06:09.924Z,96.39
2023-05-12T02:07:09.941Z,96.44
2023-05-12T02:08:10.122Z,96.48
2023-05-12T02:09:10.167Z,96.46
2023-05-12T02:10:10.294Z,96.42
2023-05-12T02:11:10.436Z,96.40
2023-05-12T02:12:10.530Z,96.43
2023-05-12T02:13:10.691Z,96.49
2023-05-12T02:14:10.786Z,96.53
2023-05-12T02:15:10.921Z,96.56
2023-05-12T02:16:11.187Z,96.59
2023-05-12T02:17:11.220Z,96.58
2023-05-12T02:18:11.322Z,96.56
2023-05-12T02:19:11.456Z,96.59
2023-05-12T02:20:11.538Z,96.63
2023-05-12T02:21:12.027Z,96.66
2023-05-12T02:22:11.818Z,96.70
2023-05-12T02:23:11.961Z,96.72
2023-05-12T02:24:14.219Z,96.73
2023-05-12T02:25:12.182Z,96.74
2023-05-12T02:26:12.537Z,96.73
2023-05-12T02:27:12.429Z,96.74
2023-05-12T02:28:12.617Z,96.74
2023-05-12T02:29:12.751Z,96.76
2023-05-12T02:30:12.869Z,96.76
2023-05-12T02:31:12.991Z,96.76
2023-05-12T02:32:13.142Z,96.74
2023-05-12T02:33:13.231Z,96.73
2023-05-12T02:34:13.340Z,96.74
2023-05-12T02:35:13.495Z,96.77
2023-05-12T02:36:13.681Z,96.78
2023-05-12T02:37:13.738Z,96.77
2023-05-12T02:38:13.886Z,96.77
2023-05-12T02:39:14.017Z,96.77
2023-05-12T02:40:14.100Z,96.68
2023-05-12T02:41:14.416Z,96.66
2023-05-12T02:42:14.371Z,96.66
2023-05-12T02:43:14.736Z,96.65
2023-05-12T02:44:14.644Z,96.60
2023-05-12T02:45:14.789Z,96.61
2023-05-12T02:46:15.056Z,96.67
2023-05-12T02:47:14.975Z,96.62
2023-05-12T02:48:15.178Z,96.57
2023-05-12T02:49:15.263Z,96.55
2023-05-12T02:50:15.417Z,96.56
2023-05-12T02:51:15.560Z,96.56
2023-05-12T02:52:15.660Z,96.52
2023-05-12T02:53:15.879Z,96.56
2023-05-12T02:54:15.943Z,96.63
2023-05-12T02:55:16.064Z,96.69
2023-05-12T02:56:16.175Z,96.73
2023-05-12T02:57:16.304Z,96.75
2023-05-12T02:58:16.497Z,96.77
2023-05-12T02:59:16.573Z,96.80
2023-05-12T03:00:16.730Z,96.82
2023-05-12T03:01:16.881Z,96.80
2023-05-12T03:02:17.033Z,96.81
2023-05-12T03:03:17.083Z,96.83
2023-05-12T03:04:17.195Z,96.83
2023-05-12T03:05:17.311Z,96.83
2023-05-12T03:06:17.430Z,96.82
2023-05-12T03:07:17.567Z,96.78
2023-05-12T03:08:17.666Z,96.80
2023-05-12T03:09:17.862Z,96.82
2023-05-12T03:10:18.186Z,96.77
2023-05-12T03:11:18.014Z,96.77
2023-05-12T03:12:18.111Z,96.77
2023-05-12T03:13:18.245Z,96.76
2023-05-12T03:14:18.447Z,96.73
2023-05-12T03:15:18.558Z,96.74
2023-05-12T03:16:19.722Z,96.77
2023-05-12T03:17:18.891Z,96.82
2023-05-12T03:18:18.937Z,96.78
2023-05-12T03:19:19.094Z,96.76
2023-05-12T03:20:19.405Z,96.77
2023-05-12T03:21:19.305Z,96.78
2023-05-12T03:22:19.606Z,96.75
2023-05-12T03:23:19.619Z,96.77
2023-05-12T03:24:19.751Z,96.76
2023-05-12T03:25:19.858Z,96.75
2023-05-12T03:26:20.089Z,96.77
2023-05-12T03:27:20.116Z,96.75
2023-05-12T03:28:20.250Z,96.74
2023-05-12T03:29:20.406Z,96.72
2023-05-12T03:30:20.753Z,96.77
2023-05-12T03:31:20.681Z,96.76
2023-05-12T03:32:20.865Z,96.78
2023-05-12T03:33:20.903Z,96.77
2023-05-12T03:34:21.016Z,96.73
2023-05-12T03:35:21.237Z,96.71
2023-05-12T03:36:21.275Z,96.72
2023-05-12T03:37:21.438Z,96.75
2023-05-12T03:38:21.576Z,96.76
2023-05-12T03:39:21.795Z,96.77
2023-05-12T03:40:22.078Z,96.76
2023-05-12T03:41:22.043Z,96.76
2023-05-12T03:42:22.104Z,96.74
2023-05-12T03:43:22.365Z,96.71
2023-05-12T03:44:22.410Z,96.74
2023-05-12T03:45:22.582Z,96.79
2023-05-12T03:46:22.948Z,96.76
2023-05-12T03:47:22.965Z,96.74
2023-05-12T03:48:22.986Z,96.70
2023-05-12T03:49:23.098Z,96.68
2023-05-12T03:50:23.170Z,96.67
2023-05-12T03:51:23.331Z,96.71
2023-05-12T03:52:23.514Z,96.80
2023-05-12T03:53:23.554Z,96.77
2023-05-12T03:54:23.789Z,96.73
2023-05-12T03:55:23.803Z,96.72
2023-05-12T03:56:23.895Z,96.76
2023-05-12T03:57:24.053Z,96.77
2023-05-12T03:58:24.164Z,96.75
2023-05-12T03:59:24.290Z,96.72
2023-05-12T04:00:24.462Z,96.77
2023-05-12T04:01:24.607Z,96.80
2023-05-12T04:02:24.795Z,96.80
2023-05-12T04:03:25.091Z,96.79
2023-05-12T04:04:24.941Z,96.82
2023-05-12T04:05:25.133Z,96.84
2023-05-12T04:06:25.354Z,96.86
2023-05-12T04:07:25.335Z,96.88
2023-05-12T04:08:25.500Z,96.88
2023-05-12T04:09:25.668Z,96.88
2023-05-12T04:10:25.780Z,96.88
2023-05-12T04:11:25.894Z,96.88
2023-05-12T04:12:26.005Z,96.85
2023-05-12T04:13:26.162Z,96.81
2023-05-12T04:14:35.231Z,96.79
2023-05-12T04:15:27.445Z,96.86
2023-05-12T04:16:27.666Z,96.89
2023-05-12T04:17:26.758Z,96.84
2023-05-12T04:18:26.872Z,96.85
2023-05-12T04:19:26.897Z,96.88
2023-05-12T04:20:27.081Z,96.88
2023-05-12T04:21:27.240Z,96.88
2023-05-12T04:22:27.313Z,96.88
2023-05-12T04:23:27.590Z,96.91
2023-05-12T04:24:27.576Z,96.91
2023-05-12T04:25:27.841Z,96.93
2023-05-12T04:26:27.913Z,96.92
2023-05-12T04:27:27.947Z,96.91
2023-05-12T04:28:28.155Z,96.90
2023-05-12T04:29:28.271Z,96.84
2023-05-12T04:30:28.360Z,96.82
2023-05-12T04:31:28.573Z,96.85
2023-05-12T04:32:28.649Z,96.87
2023-05-12T04:33:28.724Z,96.75
2023-05-12T04:34:28.838Z,96.72
2023-05-12T04:35:29.005Z,96.76
2023-05-12T04:36:30.047Z,96.75
2023-05-12T04:37:29.182Z,96.77
2023-05-12T04:38:29.324Z,96.79
2023-05-12T04:39:29.506Z,96.76
2023-05-12T04:40:29.586Z,96.80
2023-05-12T04:41:29.805Z,96.81
2023-05-12T04:42:29.850Z,96.87
2023-05-12T04:44:30.176Z,96.78
2023-05-12T04:45:30.282Z,96.80
2023-05-12T04:46:30.485Z,96.83
2023-05-12T04:47:30.603Z,96.84
2023-05-12T04:48:30.674Z,96.84
2023-05-12T04:49:30.783Z,96.83
2023-05-12T04:50:30.921Z,96.85
2023-05-12T04:51:31.051Z,96.80
2023-05-12T04:52:31.260Z,96.81
2023-05-12T04:53:31.326Z,96.86
2023-05-12T04:54:31.467Z,96.93
2023-05-12T04:55:31.650Z,96.99
2023-05-12T04:56:31.792Z,97.03
2023-05-12T04:57:31.882Z,97.08
2023-05-12T04:58:32.007Z,97.07
2023-05-12T04:59:32.145Z,97.08
2023-05-12T05:00:32.470Z,97.07
2023-05-12T05:01:32.530Z,97.07
2023-05-12T05:02:32.611Z,97.09
2023-05-12T05:03:32.811Z,97.02
2023-05-12T05:04:32.784Z,97.03
2023-05-12T05:05:32.933Z,97.01
2023-05-12T05:06:33.071Z,97.01
2023-05-12T05:07:33.296Z,97.03
2023-05-12T05:08:33.380Z,97.07
2023-05-12T05:09:34.984Z,97.10
2023-05-12T05:10:33.613Z,97.14
2023-05-12T05:11:33.839Z,97.13
2023-05-12T05:12:33.929Z,97.14
2023-05-12T05:13:34.071Z,97.13
2023-05-12T05:14:34.168Z,97.12
2023-05-12T05:15:34.308Z,97.11
2023-05-12T05:16:34.450Z,97.12
2023-05-12T05:17:34.594Z,97.12
2023-05-12T05:18:34.698Z,97.15
2023-05-12T05:19:46.142Z,97.15
2023-05-12T05:20:36.003Z,97.12
2023-05-12T05:21:35.061Z,97.13
2023-05-12T05:22:35.138Z,97.13
2023-05-12T05:23:35.249Z,97.16
2023-05-12T05:24:35.386Z,97.13
2023-05-12T05:25:35.564Z,97.15
2023-05-12T05:26:35.644Z,97.18
2023-05-12T05:27:35.816Z,97.17
2023-05-12T05:28:40.855Z,97.20
2023-05-12T05:29:36.050Z,97.20
2023-05-12T05:30:36.220Z,97.18
2023-05-12T05:31:36.345Z,97.17
2023-05-12T05:32:36.484Z,97.16
2023-05-12T05:33:36.650Z,97.13
2023-05-12T05:34:36.805Z,97.13
2023-05-12T05:35:36.981Z,97.17
2023-05-12T05:36:36.992Z,97.18
2023-05-12T05:37:37.170Z,97.17
2023-05-12T05:38:37.308Z,97.17
2023-05-12T05:39:37.424Z,97.22
2023-05-12T05:40:51.547Z,97.22
2023-05-12T05:41:38.640Z,97.24
2023-05-12T05:42:37.771Z,97.26
2023-05-12T05:43:37.964Z,97.27
2023-05-12T05:44:38.061Z,97.28
2023-05-12T05:45:38.193Z,97.28
2023-05-12T05:46:38.307Z,97.30
2023-05-12T05:47:38.466Z,97.31
2023-05-12T05:48:38.597Z,97.30
2023-05-12T05:49:38.681Z,97.30
2023-05-12T05:50:38.852Z,97.30
2023-05-12T05:51:38.948Z,97.31
2023-05-12T05:52:39.107Z,97.32
2023-05-12T05:53:39.228Z,97.29
2023-05-12T05:54:39.295Z,97.27
2023-05-12T05:55:39.435Z,97.27
2023-05-12T05:56:39.560Z,97.25
2023-05-12T05:57:39.700Z,97.27
2023-05-12T05:58:39.864Z,97.28
2023-05-12T05:59:39.950Z,97.31
2023-05-12T06:00:40.086Z,97.36
2023-05-12T06:01:40.262Z,97.41
2023-05-12T06:02:40.554Z,97.43
2023-05-12T06:03:40.525Z,97.46
2023-05-12T06:04:40.586Z,97.46
2023-05-12T06:05:40.749Z,97.46
2023-05-12T06:06:40.868Z,97.39
2023-05-12T06:07:41.006Z,97.31
2023-05-12T06:08:41.178Z,97.23
2023-05-12T06:09:41.266Z,97.19
2023-05-12T06:10:41.406Z,97.16
2023-05-12T06:11:41.530Z,97.14
2023-05-12T06:12:41.719Z,97.14
2023-05-12T06:13:43.164Z,97.10
2023-05-12T06:14:41.929Z,97.09
2023-05-12T06:15:42.067Z,97.07
2023-05-12T06:16:42.237Z,97.11
2023-05-12T06:17:42.365Z,97.17
2023-05-12T06:18:42.481Z,97.17
2023-05-12T06:19:42.570Z,97.14
2023-05-12T06:20:42.704Z,97.18
2023-05-12T06:21:42.824Z,97.23
2023-05-12T06:22:42.956Z,97.25
2023-05-12T06:23:43.111Z,97.27
2023-05-12T06:24:43.301Z,97.25
2023-05-12T06:25:43.384Z,97.24
2023-05-12T06:26:43.486Z,97.22
2023-05-12T06:27:43.627Z,97.18
2023-05-12T06:28:43.763Z,97.14
2023-05-12T06:29:43.943Z,97.14
2023-05-12T06:30:43.993Z,97.14
2023-05-12T06:31:44.176Z,97.15
2023-05-12T06:32:44.293Z,97.13
2023-05-12T06:33:44.456Z,97.10
2023-05-12T06:34:44.569Z,97.10
2023-05-12T06:35:44.699Z,97.14
2023-05-12T06:36:44.851Z,97.09
2023-05-12T06:37:44.936Z,97.01
2023-05-12T06:38:45.071Z,97.00
2023-05-12T06:39:45.199Z,97.00
2023-05-12T06:40:45.332Z,97.04
2023-05-12T06:41:45.458Z,97.04
2023-05-12T06:42:45.614Z,97.09
2023-05-12T06:43:45.826Z,97.14
2023-05-12T06:44:45.886Z,97.16
2023-05-12T06:45:46.016Z,97.10
2023-05-12T06:46:46.249Z,97.06
2023-05-12T06:47:46.366Z,97.05
2023-05-12T06:48:46.480Z,97.08
2023-05-12T06:49:46.667Z,97.11
2023-05-12T06:50:46.844Z,97.16
2023-05-12T06:51:46.992Z,97.10
2023-05-12T06:52:46.967Z,97.07
2023-05-12T06:53:47.107Z,97.06
2023-05-12T06:54:47.286Z,97.05
2023-05-12T06:55:47.385Z,97.03
2023-05-12T06:56:47.585Z,96.98
2023-05-12T06:57:47.768Z,96.88
2023-05-12T06:58:47.704Z,96.86
2023-05-12T06:59:47.857Z,96.85
2023-05-12T07:00:47.985Z,96.82
2023-05-12T07:01:48.190Z,96.89
2023-05-12T07:02:48.294Z,96.92
2023-05-12T07:03:48.438Z,96.97
2023-05-12T07:04:48.550Z,96.99
2023-05-12T07:05:48.710Z,97.00
2023-05-12T07:06:48.846Z,96.86
2023-05-12T07:07:48.950Z,96.77
2023-05-12T07:08:49.050Z,96.70
2023-05-12T07:09:49.152Z,96.73
2023-05-12T07:10:49.254Z,96.76
2023-05-12T07:11:50.957Z,96.82
2023-05-12T07:12:49.524Z,96.77
2023-05-12T07:13:49.656Z,96.68
2023-05-12T07:14:49.803Z,96.69
2023-05-12T07:15:49.906Z,96.70
2023-05-12T07:16:50.160Z,96.70
2023-05-12T07:17:50.294Z,96.75
2023-05-12T07:18:50.368Z,96.40
2023-05-12T07:19:50.443Z,96.16
2023-05-12T07:20:50.582Z,95.98
2023-05-12T07:21:50.707Z,95.97
2023-05-12T07:22:50.870Z,95.92
2023-05-12T07:23:50.967Z,95.88
2023-05-12T07:24:51.137Z,95.90
2023-05-12T07:25:51.248Z,95.82
2023-05-12T07:26:51.355Z,95.78
2023-05-12T07:27:51.510Z,95.85
2023-05-12T07:28:51.558Z,95.91
2023-05-12T07:29:51.676Z,95.97
2023-05-12T07:30:51.878Z,95.95
2023-05-12T07:31:52.120Z,95.86
2023-05-12T07:32:52.186Z,95.71
2023-05-12T07:33:52.221Z,95.67
2023-05-12T07:34:52.357Z,95.78
2023-05-12T07:35:52.476Z,95.83
2023-05-12T07:36:52.623Z,95.83
2023-05-12T07:37:52.727Z,95.72
2023-05-12T07:38:52.853Z,95.50
2023-05-12T07:39:52.940Z,95.29
2023-05-12T07:40:53.078Z,95.35
2023-05-12T07:41:53.235Z,95.33
2023-05-12T07:42:53.394Z,95.25
2023-05-12T07:43:53.497Z,95.37
2023-05-12T07:44:53.638Z,95.51
2023-05-12T07:45:53.788Z,95.54
2023-05-12T07:46:53.903Z,95.57
2023-05-12T07:47:54.106Z,95.48
2023-05-12T07:48:54.148Z,95.36
2023-05-12T07:49:54.279Z,95.33
2023-05-12T07:50:54.401Z,95.44
2023-05-12T07:51:54.545Z,95.46
2023-05-12T07:52:54.674Z,95.57
2023-05-12T07:53:54.814Z,95.49
2023-05-12T07:54:54.911Z,95.41
2023-05-12T07:55:55.011Z,95.44
2023-05-12T07:56:55.178Z,95.39
2023-05-12T07:57:55.290Z,95.38
2023-05-12T07:58:55.418Z,95.40
2023-05-12T07:59:55.515Z,95.49
2023-05-12T08:00:55.790Z,95.58
2023-05-12T08:01:55.824Z,95.61
2023-05-12T08:02:56.110Z,95.60
2023-05-12T08:03:56.104Z,95.43
2023-05-12T08:04:56.149Z,95.31
2023-05-12T08:05:56.256Z,95.26
2023-05-12T08:06:56.426Z,95.23
2023-05-12T08:07:56.556Z,95.18
2023-05-12T08:08:56.654Z,94.94
2023-05-12T08:09:56.747Z,95.01
2023-05-12T08:10:57.305Z,94.98
2023-05-12T08:11:57.030Z,94.99
2023-05-12T08:12:57.111Z,94.88
2023-05-12T08:13:57.219Z,94.88
2023-05-12T08:14:57.418Z,94.81
2023-05-12T08:15:57.482Z,94.72
2023-05-12T08:16:57.705Z,94.75
2023-05-12T08:17:57.806Z,94.55
2023-05-12T08:18:58.017Z,94.60
2023-05-12T08:19:58.088Z,94.73
2023-05-12T08:20:58.125Z,94.75
2023-05-12T08:21:58.236Z,94.68
2023-05-12T08:22:58.346Z,94.60
2023-05-12T08:23:58.538Z,94.64
2023-05-12T08:24:58.620Z,94.53
2023-05-12T08:25:58.727Z,94.58
2023-05-12T08:26:58.816Z,94.60
2023-05-12T08:27:58.961Z,94.33
2023-05-12T08:28:59.068Z,94.24
2023-05-12T08:29:59.168Z,94.36
2023-05-12T08:30:59.272Z,94.55
2023-05-12T08:31:59.411Z,94.56
2023-05-12T08:32:59.491Z,94.60
2023-05-12T08:34:09.649Z,94.61
2023-05-12T08:35:00.752Z,94.70
2023-05-12T08:35:59.876Z,94.57
2023-05-12T08:37:00.027Z,94.11
2023-05-12T08:38:00.150Z,94.08
2023-05-12T08:39:00.232Z,94.15
2023-05-12T08:40:00.324Z,94.21
2023-05-12T08:41:00.486Z,93.72
2023-05-12T08:42:00.615Z,93.71
2023-05-12T08:43:01.849Z,93.47
2023-05-12T08:44:00.909Z,93.26
2023-05-12T08:45:00.995Z,93.03
2023-05-12T08:46:01.063Z,93.18
2023-05-12T08:47:01.224Z,92.59
2023-05-12T08:48:01.294Z,92.84
2023-05-12T08:49:01.376Z,92.54
2023-05-12T08:50:01.490Z,92.31
2023-05-12T08:51:01.600Z,92.78
2023-05-12T08:52:01.691Z,92.24
2023-05-12T08:53:01.959Z,92.56
2023-05-12T08:54:01.989Z,92.01
2023-05-12T08:55:03.525Z,91.59
2023-05-12T08:57:09.626Z,92.04
2023-05-12T08:58:02.424Z,90.81
2023-05-12T08:59:02.575Z,90.29
2023-05-12T09:00:02.756Z,90.64
2023-05-12T09:01:02.945Z,91.05
2023-05-12T09:02:03.026Z,90.26
2023-05-12T09:03:03.262Z,89.95
2023-05-12T09:04:03.352Z,89.69
2023-05-12T09:05:03.503Z,88.79
2023-05-12T09:06:03.537Z,89.55
2023-05-12T09:07:03.640Z,88.24
2023-05-12T09:08:03.759Z,88.17
2023-05-12T09:09:03.917Z,88.70
2023-05-12T09:10:03.978Z,88.39
2023-05-12T09:11:04.089Z,88.12
2023-05-12T09:12:04.220Z,88.52
2023-05-12T09:13:04.405Z,88.43
2023-05-12T09:14:04.582Z,89.39
2023-05-12T09:15:04.632Z,89.05
2023-05-12T09:16:04.767Z,88.37
2023-05-12T09:17:04.900Z,88.42
2023-05-12T09:18:05.019Z,88.31
2023-05-12T09:19:06.858Z,88.26
2023-05-12T09:20:05.204Z,88.09
2023-05-12T09:21:05.263Z,87.01
2023-05-12T09:22:05.404Z,88.53
2023-05-12T09:23:05.526Z,88.53
2023-05-12T09:24:05.612Z,88.14
2023-05-12T09:25:05.774Z,86.20
2023-05-12T09:26:05.856Z,85.66
2023-05-12T09:27:05.991Z,86.73
2023-05-12T09:28:06.074Z,86.04
2023-05-12T09:29:06.226Z,86.60
2023-05-12T09:30:06.343Z,85.55
2023-05-12T09:31:06.560Z,85.81
2023-05-12T09:32:06.794Z,86.65
2023-05-12T09:33:06.837Z,86.54
2023-05-12T09:34:06.917Z,86.07
2023-05-12T09:35:07.018Z,85.07
2023-05-12T09:36:07.175Z,84.86
2023-05-12T09:37:07.365Z,84.91
2023-05-12T09:38:07.396Z,85.52
2023-05-12T09:39:07.532Z,85.22
2023-05-12T09:40:07.647Z,86.02
2023-05-12T09:41:07.755Z,85.10
2023-05-12T09:42:07.868Z,85.04
2023-05-12T09:43:08.045Z,85.94
2023-05-12T09:44:08.069Z,84.98
2023-05-12T09:45:09.238Z,85.24
2023-05-12T09:46:08.404Z,84.71
2023-05-12T09:47:08.559Z,84.89
2023-05-12T09:48:08.739Z,85.58
2023-05-12T09:49:08.730Z,85.72
2023-05-12T09:50:08.862Z,85.05
2023-05-12T09:51:08.928Z,84.67
2023-05-12T09:52:09.108Z,85.05
2023-05-12T09:53:09.231Z,83.98
2023-05-12T09:54:09.316Z,83.62
2023-05-12T09:55:09.472Z,83.28
2023-05-12T09:56:09.565Z,82.89
2023-05-12T09:57:09.656Z,82.69
2023-05-12T09:58:09.745Z,83.73
2023-05-12T09:59:09.897Z,84.20
2023-05-12T10:00:20.218Z,84.37
2023-05-12T10:01:21.579Z,83.75
2023-05-12T10:02:11.331Z,84.09
2023-05-12T10:03:10.522Z,83.32
2023-05-12T10:04:10.577Z,83.80
2023-05-12T10:05:10.774Z,83.35
2023-05-12T10:06:10.798Z,83.77
2023-05-12T10:07:10.955Z,84.13
2023-05-12T10:08:11.042Z,83.28
2023-05-12T10:09:11.193Z,82.97
2023-05-12T10:10:11.350Z,83.01
2023-05-12T10:11:11.400Z,81.61
2023-05-12T10:12:11.608Z,81.60
2023-05-12T10:13:11.712Z,82.54
2023-05-12T10:14:11.769Z,82.64
2023-05-12T10:15:11.893Z,81.05
2023-05-12T10:16:11.983Z,80.69
2023-05-12T10:17:12.141Z,80.63
2023-05-12T10:18:12.289Z,78.88
2023-05-12T10:19:12.399Z,79.25
2023-05-12T10:20:12.488Z,79.45
2023-05-12T10:21:12.587Z,79.43
2023-05-12T10:22:12.700Z,78.96
2023-05-12T10:23:12.926Z,79.36
2023-05-12T10:24:12.933Z,80.64
2023-05-12T10:25:13.042Z,78.96
2023-05-12T10:26:13.154Z,78.18
2023-05-12T10:27:13.248Z,77.32
2023-05-12T10:28:13.425Z,76.41
2023-05-12T10:29:13.571Z,79.17
2023-05-12T10:30:13.686Z,77.69
2023-05-12T10:31:13.867Z,77.61
2023-05-12T10:32:13.912Z,78.04
2023-05-12T10:33:14.011Z,78.20
2023-05-12T10:34:14.129Z,77.83
2023-05-12T10:35:14.210Z,75.82
2023-05-12T10:36:14.317Z,74.31
2023-05-12T10:37:14.413Z,74.58
2023-05-12T10:38:14.627Z,74.59
2023-05-12T10:39:14.694Z,73.86
2023-05-12T10:40:14.806Z,73.89
2023-05-12T10:41:14.981Z,74.17
2023-05-12T10:42:15.070Z,75.14
2023-05-12T10:43:15.285Z,73.67
2023-05-12T10:44:15.348Z,76.23
2023-05-12T10:45:15.442Z,75.31
2023-05-12T10:46:15.655Z,77.12
2023-05-12T10:47:15.714Z,75.27
2023-05-12T10:48:15.803Z,76.04
2023-05-12T10:49:16.016Z,74.44
2023-05-12T10:50:16.115Z,74.36
2023-05-12T10:51:16.235Z,73.39
2023-05-12T10:52:16.312Z,74.24
2023-05-12T10:53:16.440Z,75.79
2023-05-12T10:54:16.580Z,74.61
2023-05-12T10:55:16.756Z,74.43
2023-05-12T10:56:16.950Z,74.73
2023-05-12T10:57:18.506Z,75.57
2023-05-12T10:58:17.370Z,76.07
2023-05-12T10:59:17.686Z,73.72
2023-05-12T11:00:17.623Z,75.54
2023-05-12T11:01:17.751Z,75.05
2023-05-12T11:02:18.449Z,74.03
2023-05-12T11:03:18.836Z,74.94
2023-05-12T11:04:17.932Z,73.11
2023-05-12T11:05:18.182Z,73.40
2023-05-12T11:06:19.116Z,71.51
2023-05-12T11:07:18.925Z,71.76
2023-05-12T11:08:19.629Z,72.41
2023-05-12T11:09:19.677Z,72.93
2023-05-12T11:10:18.687Z,74.03
2023-05-12T11:11:18.638Z,71.72
2023-05-12T11:12:18.717Z,71.38
2023-05-12T11:13:18.838Z,70.02
2023-05-12T11:14:18.986Z,69.75
2023-05-12T11:15:19.358Z,70.47
2023-05-12T11:16:19.241Z,69.82
2023-05-12T11:17:19.362Z,68.38
2023-05-12T11:18:19.447Z,67.81
2023-05-12T11:19:19.585Z,66.60
2023-05-12T11:20:19.838Z,67.25
2023-05-12T11:21:19.878Z,66.14
2023-05-12T11:22:20.106Z,66.55
2023-05-12T11:23:20.160Z,65.10
2023-05-12T11:24:20.209Z,64.88
2023-05-12T11:25:20.607Z,65.46
2023-05-12T11:26:20.455Z,64.59
2023-05-12T11:27:20.574Z,64.29
2023-05-12T11:28:20.659Z,63.30
2023-05-12T11:29:20.759Z,64.07
2023-05-12T11:30:20.914Z,64.28
2023-05-12T11:31:21.012Z,65.67
2023-05-12T11:32:21.104Z,65.37
2023-05-12T11:33:21.214Z,65.13
2023-05-12T11:34:21.333Z,64.54
2023-05-12T11:35:21.661Z,65.44
2023-05-12T11:36:21.843Z,64.86
2023-05-12T11:37:21.791Z,64.11
2023-05-12T11:38:21.842Z,65.74
2023-05-12T11:39:21.965Z,65.63
2023-05-12T11:40:22.135Z,65.82
2023-05-12T11:41:22.185Z,64.52
2023-05-12T11:42:25.120Z,64.59
2023-05-12T11:43:22.457Z,66.59
2023-05-12T11:44:22.498Z,65.23
2023-05-12T11:45:23.000Z,65.19
2023-05-12T11:46:22.925Z,65.24
2023-05-12T11:47:22.896Z,65.20
2023-05-12T11:48:23.030Z,65.51
2023-05-12T11:49:23.128Z,64.44
2023-05-12T11:50:23.257Z,64.50
2023-05-12T11:51:23.373Z,64.50
2023-05-12T11:52:23.471Z,64.69
2023-05-12T11:53:23.931Z,64.38
2023-05-12T11:54:23.673Z,64.90
2023-05-12T11:55:23.784Z,65.57
2023-05-12T11:56:23.910Z,63.53
2023-05-12T11:57:24.035Z,63.62
2023-05-12T11:58:24.216Z,64.20
2023-05-12T11:59:24.256Z,64.41
2023-05-12T12:00:24.889Z,64.31
2023-05-12T12:01:24.485Z,64.15
2023-05-12T12:02:24.650Z,63.50
2023-05-12T12:03:24.816Z,62.45
2023-05-12T12:04:24.880Z,62.66
2023-05-12T12:05:24.983Z,64.30
2023-05-12T12:06:25.115Z,64.41
2023-05-12T12:07:25.254Z,64.50
2023-05-12T12:08:25.385Z,64.33
2023-05-12T12:09:25.541Z,63.59
2023-05-12T12:10:25.581Z,62.51
2023-05-12T12:11:25.738Z,62.57
2023-05-12T12:12:25.840Z,63.60
2023-05-12T12:13:26.051Z,65.38
2023-05-12T12:14:26.068Z,62.56
2023-05-12T12:15:26.203Z,63.46
2023-05-12T12:16:26.357Z,60.74
2023-05-12T12:17:26.473Z,62.85
2023-05-12T12:18:26.611Z,60.24
2023-05-12T12:19:26.686Z,60.39
2023-05-12T12:20:26.787Z,61.02
2023-05-12T12:21:26.898Z,62.52
2023-05-12T12:22:27.035Z,60.12
2023-05-12T12:23:27.252Z,60.97
2023-05-12T12:24:27.240Z,60.80
2023-05-12T12:25:27.341Z,60.10
2023-05-12T12:26:27.493Z,62.37
2023-05-12T12:27:27.596Z,60.59
2023-05-12T12:28:27.725Z,60.28
2023-05-12T12:29:27.791Z,59.20
2023-05-12T12:30:27.906Z,58.53
2023-05-12T12:31:28.074Z,59.68
2023-05-12T12:32:28.213Z,59.56
2023-05-12T12:33:28.271Z,60.45
2023-05-12T12:34:28.392Z,59.14
2023-05-12T12:35:28.477Z,59.13
2023-05-12T12:36:28.636Z,58.48
2023-05-12T12:37:28.728Z,59.21
2023-05-12T12:38:28.822Z,60.08
2023-05-12T12:39:28.981Z,60.47
2023-05-12T12:40:29.085Z,60.69
2023-05-12T12:41:29.226Z,61.55
2023-05-12T12:42:29.388Z,61.11
2023-05-12T12:43:29.545Z,61.97
2023-05-12T12:44:29.606Z,60.04
2023-05-12T12:45:29.702Z,59.65
2023-05-12T12:46:29.839Z,60.82
2023-05-12T12:47:29.966Z,60.01
2023-05-12T12:48:30.059Z,59.86
2023-05-12T12:49:30.254Z,60.37
2023-05-12T12:50:30.304Z,59.28
2023-05-12T12:51:44.472Z,59.99
2023-05-12T12:52:31.560Z,58.26
2023-05-12T12:53:30.644Z,58.74
2023-05-12T12:54:30.738Z,59.71
2023-05-12T12:55:30.886Z,58.24
2023-05-12T12:56:30.994Z,59.08